sensor_id;sensor_type;location;lat;lon;timestamp;temperature;humidity
22321;DHT22;11328;53.928;18.522;2024-01-11T00:02:21;1.10;99.90
22321;DHT22;11328;53.928;18.522;2024-01-11T00:04:48;1.10;99.90
22321;DHT22;11328;53.928;18.522;2024-01-11T00:07:20;1.00;99.90
22321;DHT22;11328;53.928;18.522;2024-01-11T00:10:01;1.00;99.90
22321;DHT22;11328;53.928;18.522;2024-01-11T00:12:29;1.00;99.90
22321;DHT22;11328;53.928;18.522;2024-01-11T00:14:56;1.00;99.90
22321;DHT22;11328;53.928;18.522;2024-01-11T00:17:23;1.00;99.90
22321;DHT22;11328;53.928;18.522;2024-01-11T00:19:50;0.90;99.90
22321;DHT22;11328;53.928;18.522;2024-01-11T00:22:17;1.00;99.90
22321;DHT22;11328;53.928;18.522;2024-01-11T00:24:44;1.00;99.90
22321;DHT22;11328;53.928;18.522;2024-01-11T00:27:11;1.00;99.90
22321;DHT22;11328;53.928;18.522;2024-01-11T00:29:38;1.10;99.90
22321;DHT22;11328;53.928;18.522;2024-01-11T00:32:05;1.10;99.90
22321;DHT22;11328;53.928;18.522;2024-01-11T00:34:33;1.20;99.90
22321;DHT22;11328;53.928;18.522;2024-01-11T00:37:00;1.30;99.90
22321;DHT22;11328;53.928;18.522;2024-01-11T00:39:27;1.30;99.90
22321;DHT22;11328;53.928;18.522;2024-01-11T00:41:55;1.30;99.90
22321;DHT22;11328;53.928;18.522;2024-01-11T00:44:22;1.40;99.90
22321;DHT22;11328;53.928;18.522;2024-01-11T00:46:49;1.40;99.90
22321;DHT22;11328;53.928;18.522;2024-01-11T00:49:16;1.50;99.90
22321;DHT22;11328;53.928;18.522;2024-01-11T00:51:44;1.70;99.90
22321;DHT22;11328;53.928;18.522;2024-01-11T00:54:11;1.70;99.90
22321;DHT22;11328;53.928;18.522;2024-01-11T00:56:38;1.70;99.90
22321;DHT22;11328;53.928;18.522;2024-01-11T00:59:05;1.80;99.90
22321;DHT22;11328;53.928;18.522;2024-01-11T01:01:32;1.70;99.90
22321;DHT22;11328;53.928;18.522;2024-01-11T01:03:59;1.70;99.90
22321;DHT22;11328;53.928;18.522;2024-01-11T01:06:26;1.70;99.90
22321;DHT22;11328;53.928;18.522;2024-01-11T01:08:56;1.80;99.90
22321;DHT22;11328;53.928;18.522;2024-01-11T01:11:23;1.70;99.90
22321;DHT22;11328;53.928;18.522;2024-01-11T01:13:50;1.70;99.90
22321;DHT22;11328;53.928;18.522;2024-01-11T01:16:17;1.70;99.90
22321;DHT22;11328;53.928;18.522;2024-01-11T01:18:44;1.70;99.90
22321;DHT22;11328;53.928;18.522;2024-01-11T01:21:11;1.70;99.90
22321;DHT22;11328;53.928;18.522;2024-01-11T01:23:38;1.70;99.90
22321;DHT22;11328;53.928;18.522;2024-01-11T01:26:06;1.60;99.90
22321;DHT22;11328;53.928;18.522;2024-01-11T01:28:33;1.60;99.90
22321;DHT22;11328;53.928;18.522;2024-01-11T01:31:00;1.70;99.90
22321;DHT22;11328;53.928;18.522;2024-01-11T01:33:28;1.60;99.90
22321;DHT22;11328;53.928;18.522;2024-01-11T01:35:55;1.70;99.90
22321;DHT22;11328;53.928;18.522;2024-01-11T01:38:23;1.70;99.90
22321;DHT22;11328;53.928;18.522;2024-01-11T01:40:50;1.70;99.90
22321;DHT22;11328;53.928;18.522;2024-01-11T01:43:18;1.80;99.90
22321;DHT22;11328;53.928;18.522;2024-01-11T01:45:45;1.80;99.90
22321;DHT22;11328;53.928;18.522;2024-01-11T01:48:12;1.80;99.90
22321;DHT22;11328;53.928;18.522;2024-01-11T01:50:39;1.90;99.90
22321;DHT22;11328;53.928;18.522;2024-01-11T01:53:07;1.90;99.90
22321;DHT22;11328;53.928;18.522;2024-01-11T01:55:34;1.90;99.90
22321;DHT22;11328;53.928;18.522;2024-01-11T01:58:03;1.80;99.90
22321;DHT22;11328;53.928;18.522;2024-01-11T02:00:31;1.90;99.90
22321;DHT22;11328;53.928;18.522;2024-01-11T02:02:58;1.90;99.90
22321;DHT22;11328;53.928;18.522;2024-01-11T02:05:25;2.00;99.90
22321;DHT22;11328;53.928;18.522;2024-01-11T02:07:53;2.00;99.90
22321;DHT22;11328;53.928;18.522;2024-01-11T02:10:20;2.00;99.90
22321;DHT22;11328;53.928;18.522;2024-01-11T02:12:49;2.00;99.90
22321;DHT22;11328;53.928;18.522;2024-01-11T02:15:16;2.00;99.90
22321;DHT22;11328;53.928;18.522;2024-01-11T02:17:44;2.00;99.90
22321;DHT22;11328;53.928;18.522;2024-01-11T02:20:11;2.10;99.90
22321;DHT22;11328;53.928;18.522;2024-01-11T02:22:40;2.10;99.90
22321;DHT22;11328;53.928;18.522;2024-01-11T02:25:12;2.10;99.90
22321;DHT22;11328;53.928;18.522;2024-01-11T02:27:47;2.00;99.90
22321;DHT22;11328;53.928;18.522;2024-01-11T02:30:15;2.10;99.90
22321;DHT22;11328;53.928;18.522;2024-01-11T02:32:44;2.10;99.90
22321;DHT22;11328;53.928;18.522;2024-01-11T02:35:16;2.10;99.90
22321;DHT22;11328;53.928;18.522;2024-01-11T02:37:44;2.10;99.90
22321;DHT22;11328;53.928;18.522;2024-01-11T02:40:13;2.00;99.90
22321;DHT22;11328;53.928;18.522;2024-01-11T02:42:40;2.00;99.90
22321;DHT22;11328;53.928;18.522;2024-01-11T02:45:07;2.00;99.90
22321;DHT22;11328;53.928;18.522;2024-01-11T02:47:36;2.00;99.90
22321;DHT22;11328;53.928;18.522;2024-01-11T02:50:03;2.00;99.90
22321;DHT22;11328;53.928;18.522;2024-01-11T02:52:31;2.00;99.90
22321;DHT22;11328;53.928;18.522;2024-01-11T02:54:58;2.00;99.90
22321;DHT22;11328;53.928;18.522;2024-01-11T02:57:25;1.90;99.90
22321;DHT22;11328;53.928;18.522;2024-01-11T02:59:52;2.00;99.90
22321;DHT22;11328;53.928;18.522;2024-01-11T03:02:19;1.90;99.90
22321;DHT22;11328;53.928;18.522;2024-01-11T03:04:46;1.90;99.90
22321;DHT22;11328;53.928;18.522;2024-01-11T03:07:13;2.00;99.90
22321;DHT22;11328;53.928;18.522;2024-01-11T03:09:40;2.00;99.90
22321;DHT22;11328;53.928;18.522;2024-01-11T03:12:07;1.90;99.90
22321;DHT22;11328;53.928;18.522;2024-01-11T03:14:34;1.90;99.90
22321;DHT22;11328;53.928;18.522;2024-01-11T03:17:01;1.90;99.90
22321;DHT22;11328;53.928;18.522;2024-01-11T03:19:28;1.90;99.90
22321;DHT22;11328;53.928;18.522;2024-01-11T03:21:55;1.90;99.90
22321;DHT22;11328;53.928;18.522;2024-01-11T03:24:22;1.90;99.90
22321;DHT22;11328;53.928;18.522;2024-01-11T03:26:49;1.90;99.90
22321;DHT22;11328;53.928;18.522;2024-01-11T03:29:16;1.90;99.90
22321;DHT22;11328;53.928;18.522;2024-01-11T03:31:43;1.90;99.90
22321;DHT22;11328;53.928;18.522;2024-01-11T03:34:12;1.90;99.90
22321;DHT22;11328;53.928;18.522;2024-01-11T03:36:39;1.80;99.90
22321;DHT22;11328;53.928;18.522;2024-01-11T03:39:07;1.80;99.90
22321;DHT22;11328;53.928;18.522;2024-01-11T03:41:34;1.80;99.90
22321;DHT22;11328;53.928;18.522;2024-01-11T03:44:01;1.90;99.90
22321;DHT22;11328;53.928;18.522;2024-01-11T03:46:28;1.90;99.90
22321;DHT22;11328;53.928;18.522;2024-01-11T03:48:54;1.90;99.90
22321;DHT22;11328;53.928;18.522;2024-01-11T03:51:23;1.80;99.90
22321;DHT22;11328;53.928;18.522;2024-01-11T03:53:50;1.80;99.90
22321;DHT22;11328;53.928;18.522;2024-01-11T03:56:17;1.80;99.90
22321;DHT22;11328;53.928;18.522;2024-01-11T03:58:44;1.70;99.90
22321;DHT22;11328;53.928;18.522;2024-01-11T04:01:12;1.70;99.90
22321;DHT22;11328;53.928;18.522;2024-01-11T04:03:39;1.80;99.90
22321;DHT22;11328;53.928;18.522;2024-01-11T04:06:08;1.80;99.90
22321;DHT22;11328;53.928;18.522;2024-01-11T04:08:35;1.80;99.90
22321;DHT22;11328;53.928;18.522;2024-01-11T04:11:03;1.80;99.90
22321;DHT22;11328;53.928;18.522;2024-01-11T04:13:33;1.80;99.90
22321;DHT22;11328;53.928;18.522;2024-01-11T04:16:04;1.80;99.90
22321;DHT22;11328;53.928;18.522;2024-01-11T04:18:33;1.80;99.90
22321;DHT22;11328;53.928;18.522;2024-01-11T04:21:00;1.80;99.90
22321;DHT22;11328;53.928;18.522;2024-01-11T04:23:27;1.70;99.90
22321;DHT22;11328;53.928;18.522;2024-01-11T04:25:54;1.70;99.90
22321;DHT22;11328;53.928;18.522;2024-01-11T04:28:21;1.70;99.90
22321;DHT22;11328;53.928;18.522;2024-01-11T04:30:48;1.80;99.90
22321;DHT22;11328;53.928;18.522;2024-01-11T04:33:15;1.80;99.90
22321;DHT22;11328;53.928;18.522;2024-01-11T04:35:42;1.80;99.90
22321;DHT22;11328;53.928;18.522;2024-01-11T04:38:09;1.70;99.90
22321;DHT22;11328;53.928;18.522;2024-01-11T04:40:36;1.80;99.90
22321;DHT22;11328;53.928;18.522;2024-01-11T04:43:03;1.70;99.90
22321;DHT22;11328;53.928;18.522;2024-01-11T04:45:30;1.70;99.90
22321;DHT22;11328;53.928;18.522;2024-01-11T04:47:57;1.80;99.90
22321;DHT22;11328;53.928;18.522;2024-01-11T04:50:24;1.80;99.90
22321;DHT22;11328;53.928;18.522;2024-01-11T04:57:06;1.80;99.90
22321;DHT22;11328;53.928;18.522;2024-01-11T04:59:34;1.70;99.90
22321;DHT22;11328;53.928;18.522;2024-01-11T05:02:01;1.70;99.90
22321;DHT22;11328;53.928;18.522;2024-01-11T05:04:27;1.70;99.90
22321;DHT22;11328;53.928;18.522;2024-01-11T05:06:54;1.80;99.90
22321;DHT22;11328;53.928;18.522;2024-01-11T05:09:21;1.80;99.90
22321;DHT22;11328;53.928;18.522;2024-01-11T05:11:48;1.70;99.90
22321;DHT22;11328;53.928;18.522;2024-01-11T05:14:15;1.70;99.90
22321;DHT22;11328;53.928;18.522;2024-01-11T05:16:42;1.70;99.90
22321;DHT22;11328;53.928;18.522;2024-01-11T05:19:10;1.70;99.90
22321;DHT22;11328;53.928;18.522;2024-01-11T05:21:37;1.80;99.90
22321;DHT22;11328;53.928;18.522;2024-01-11T05:24:04;1.70;99.90
22321;DHT22;11328;53.928;18.522;2024-01-11T05:26:34;1.70;99.90
22321;DHT22;11328;53.928;18.522;2024-01-11T05:29:01;1.70;99.90
22321;DHT22;11328;53.928;18.522;2024-01-11T05:31:30;1.80;99.90
22321;DHT22;11328;53.928;18.522;2024-01-11T05:33:57;1.80;99.90
22321;DHT22;11328;53.928;18.522;2024-01-11T05:36:25;1.80;99.90
22321;DHT22;11328;53.928;18.522;2024-01-11T05:38:52;1.80;99.90
22321;DHT22;11328;53.928;18.522;2024-01-11T05:41:18;1.80;99.90
22321;DHT22;11328;53.928;18.522;2024-01-11T05:43:46;1.80;99.90
22321;DHT22;11328;53.928;18.522;2024-01-11T05:46:13;1.80;99.90
22321;DHT22;11328;53.928;18.522;2024-01-11T05:48:40;1.90;99.90
22321;DHT22;11328;53.928;18.522;2024-01-11T05:51:08;1.80;99.90
22321;DHT22;11328;53.928;18.522;2024-01-11T05:53:36;1.90;99.90
22321;DHT22;11328;53.928;18.522;2024-01-11T05:56:08;1.90;99.90
22321;DHT22;11328;53.928;18.522;2024-01-11T05:58:36;1.90;99.90
22321;DHT22;11328;53.928;18.522;2024-01-11T06:01:04;1.80;99.90
22321;DHT22;11328;53.928;18.522;2024-01-11T06:03:31;1.90;99.90
22321;DHT22;11328;53.928;18.522;2024-01-11T06:06:02;1.90;99.90
22321;DHT22;11328;53.928;18.522;2024-01-11T06:08:30;1.90;99.90
22321;DHT22;11328;53.928;18.522;2024-01-11T06:10:58;1.90;99.90
22321;DHT22;11328;53.928;18.522;2024-01-11T06:13:25;1.90;99.90
22321;DHT22;11328;53.928;18.522;2024-01-11T06:15:53;1.90;99.90
22321;DHT22;11328;53.928;18.522;2024-01-11T06:18:20;1.90;99.90
22321;DHT22;11328;53.928;18.522;2024-01-11T06:20:47;1.90;99.90
22321;DHT22;11328;53.928;18.522;2024-01-11T06:23:14;1.90;99.90
22321;DHT22;11328;53.928;18.522;2024-01-11T06:25:44;2.00;99.90
22321;DHT22;11328;53.928;18.522;2024-01-11T06:28:12;1.90;99.90
22321;DHT22;11328;53.928;18.522;2024-01-11T06:30:40;2.00;99.90
22321;DHT22;11328;53.928;18.522;2024-01-11T06:33:07;2.00;99.90
22321;DHT22;11328;53.928;18.522;2024-01-11T06:35:34;2.00;99.90
22321;DHT22;11328;53.928;18.522;2024-01-11T06:38:01;2.10;99.90
22321;DHT22;11328;53.928;18.522;2024-01-11T06:40:29;2.00;99.90
22321;DHT22;11328;53.928;18.522;2024-01-11T06:42:56;2.00;99.90
22321;DHT22;11328;53.928;18.522;2024-01-11T06:45:23;2.00;99.90
22321;DHT22;11328;53.928;18.522;2024-01-11T06:47:50;2.00;99.90
22321;DHT22;11328;53.928;18.522;2024-01-11T06:50:17;1.90;99.90
22321;DHT22;11328;53.928;18.522;2024-01-11T06:52:44;1.90;99.90
22321;DHT22;11328;53.928;18.522;2024-01-11T06:55:11;1.90;99.90
22321;DHT22;11328;53.928;18.522;2024-01-11T06:57:38;1.80;99.90
22321;DHT22;11328;53.928;18.522;2024-01-11T07:00:06;2.00;99.90
22321;DHT22;11328;53.928;18.522;2024-01-11T07:02:34;1.90;99.90
22321;DHT22;11328;53.928;18.522;2024-01-11T07:05:02;2.00;99.90
22321;DHT22;11328;53.928;18.522;2024-01-11T07:07:29;2.00;99.90
22321;DHT22;11328;53.928;18.522;2024-01-11T07:09:56;1.90;99.90
22321;DHT22;11328;53.928;18.522;2024-01-11T07:12:23;2.00;99.90
22321;DHT22;11328;53.928;18.522;2024-01-11T07:14:54;2.00;99.90
22321;DHT22;11328;53.928;18.522;2024-01-11T07:17:21;2.00;99.90
22321;DHT22;11328;53.928;18.522;2024-01-11T07:19:49;2.00;99.90
22321;DHT22;11328;53.928;18.522;2024-01-11T07:22:16;2.10;99.90
22321;DHT22;11328;53.928;18.522;2024-01-11T07:24:43;2.00;99.90
22321;DHT22;11328;53.928;18.522;2024-01-11T07:27:10;2.10;99.90
22321;DHT22;11328;53.928;18.522;2024-01-11T07:29:37;2.10;99.90
22321;DHT22;11328;53.928;18.522;2024-01-11T07:32:04;2.20;99.90
22321;DHT22;11328;53.928;18.522;2024-01-11T07:34:32;2.10;99.90
22321;DHT22;11328;53.928;18.522;2024-01-11T07:36:59;2.20;99.90
22321;DHT22;11328;53.928;18.522;2024-01-11T07:39:26;2.10;99.90
22321;DHT22;11328;53.928;18.522;2024-01-11T07:41:53;2.20;99.90
22321;DHT22;11328;53.928;18.522;2024-01-11T07:44:20;2.20;99.90
22321;DHT22;11328;53.928;18.522;2024-01-11T07:46:47;2.20;99.90
22321;DHT22;11328;53.928;18.522;2024-01-11T07:49:20;2.20;99.90
22321;DHT22;11328;53.928;18.522;2024-01-11T07:51:48;2.20;99.90
22321;DHT22;11328;53.928;18.522;2024-01-11T07:54:15;2.10;99.90
22321;DHT22;11328;53.928;18.522;2024-01-11T07:56:42;2.20;99.90
22321;DHT22;11328;53.928;18.522;2024-01-11T07:59:10;2.20;99.90
22321;DHT22;11328;53.928;18.522;2024-01-11T08:01:41;2.20;99.90
22321;DHT22;11328;53.928;18.522;2024-01-11T08:04:09;2.20;99.90
22321;DHT22;11328;53.928;18.522;2024-01-11T08:06:36;2.30;99.90
22321;DHT22;11328;53.928;18.522;2024-01-11T08:09:03;2.20;99.90
22321;DHT22;11328;53.928;18.522;2024-01-11T08:11:31;2.20;99.90
22321;DHT22;11328;53.928;18.522;2024-01-11T08:14:04;2.10;99.90
22321;DHT22;11328;53.928;18.522;2024-01-11T08:16:32;2.20;99.90
22321;DHT22;11328;53.928;18.522;2024-01-11T08:18:59;2.10;99.90
22321;DHT22;11328;53.928;18.522;2024-01-11T08:21:28;2.10;99.90
22321;DHT22;11328;53.928;18.522;2024-01-11T08:23:55;2.10;99.90
22321;DHT22;11328;53.928;18.522;2024-01-11T08:26:28;2.20;99.90
22321;DHT22;11328;53.928;18.522;2024-01-11T08:28:56;2.20;99.90
22321;DHT22;11328;53.928;18.522;2024-01-11T08:31:24;2.10;99.90
22321;DHT22;11328;53.928;18.522;2024-01-11T08:33:51;2.20;99.90
22321;DHT22;11328;53.928;18.522;2024-01-11T08:36:18;2.10;99.90
22321;DHT22;11328;53.928;18.522;2024-01-11T08:38:45;2.20;99.90
22321;DHT22;11328;53.928;18.522;2024-01-11T08:41:13;2.20;99.90
22321;DHT22;11328;53.928;18.522;2024-01-11T08:43:40;2.10;99.90
22321;DHT22;11328;53.928;18.522;2024-01-11T08:46:06;2.10;99.90
22321;DHT22;11328;53.928;18.522;2024-01-11T08:48:33;2.10;99.90
22321;DHT22;11328;53.928;18.522;2024-01-11T08:51:01;2.10;99.90
22321;DHT22;11328;53.928;18.522;2024-01-11T08:53:28;2.20;99.90
22321;DHT22;11328;53.928;18.522;2024-01-11T08:55:55;2.10;99.90
22321;DHT22;11328;53.928;18.522;2024-01-11T08:58:23;2.10;99.90
22321;DHT22;11328;53.928;18.522;2024-01-11T09:00:50;2.10;99.90
22321;DHT22;11328;53.928;18.522;2024-01-11T09:03:17;2.00;99.90
22321;DHT22;11328;53.928;18.522;2024-01-11T09:05:44;2.10;99.90
22321;DHT22;11328;53.928;18.522;2024-01-11T09:08:11;2.10;99.90
22321;DHT22;11328;53.928;18.522;2024-01-11T09:10:39;2.20;99.90
22321;DHT22;11328;53.928;18.522;2024-01-11T09:13:08;2.20;99.90
22321;DHT22;11328;53.928;18.522;2024-01-11T09:15:38;2.10;99.90
22321;DHT22;11328;53.928;18.522;2024-01-11T09:18:05;2.20;99.90
22321;DHT22;11328;53.928;18.522;2024-01-11T09:20:32;2.40;99.90
22321;DHT22;11328;53.928;18.522;2024-01-11T09:23:00;2.40;99.90
22321;DHT22;11328;53.928;18.522;2024-01-11T09:25:30;2.40;99.90
22321;DHT22;11328;53.928;18.522;2024-01-11T09:27:58;2.40;99.90
22321;DHT22;11328;53.928;18.522;2024-01-11T09:30:25;2.50;99.90
22321;DHT22;11328;53.928;18.522;2024-01-11T09:32:53;2.60;99.90
22321;DHT22;11328;53.928;18.522;2024-01-11T09:35:20;2.60;99.90
22321;DHT22;11328;53.928;18.522;2024-01-11T09:37:48;2.50;99.90
22321;DHT22;11328;53.928;18.522;2024-01-11T09:40:15;2.50;99.90
22321;DHT22;11328;53.928;18.522;2024-01-11T09:42:44;2.70;99.90
22321;DHT22;11328;53.928;18.522;2024-01-11T09:45:16;2.60;99.90
22321;DHT22;11328;53.928;18.522;2024-01-11T09:47:44;2.60;99.90
22321;DHT22;11328;53.928;18.522;2024-01-11T09:50:14;2.60;99.90
22321;DHT22;11328;53.928;18.522;2024-01-11T09:52:46;2.60;99.90
22321;DHT22;11328;53.928;18.522;2024-01-11T09:55:18;2.60;99.90
22321;DHT22;11328;53.928;18.522;2024-01-11T09:57:47;2.70;99.90
22321;DHT22;11328;53.928;18.522;2024-01-11T10:00:21;2.70;99.90
22321;DHT22;11328;53.928;18.522;2024-01-11T10:02:49;2.70;99.90
22321;DHT22;11328;53.928;18.522;2024-01-11T10:05:17;2.70;99.90
22321;DHT22;11328;53.928;18.522;2024-01-11T10:07:45;2.70;99.90
22321;DHT22;11328;53.928;18.522;2024-01-11T10:10:12;2.80;99.90
22321;DHT22;11328;53.928;18.522;2024-01-11T10:12:43;2.80;99.90
22321;DHT22;11328;53.928;18.522;2024-01-11T10:15:10;2.80;99.90
22321;DHT22;11328;53.928;18.522;2024-01-11T10:20:12;2.70;99.90
22321;DHT22;11328;53.928;18.522;2024-01-11T10:22:45;2.70;99.90
22321;DHT22;11328;53.928;18.522;2024-01-11T10:25:14;2.70;99.90
22321;DHT22;11328;53.928;18.522;2024-01-11T10:27:43;2.60;99.90
22321;DHT22;11328;53.928;18.522;2024-01-11T10:30:13;2.70;99.90
22321;DHT22;11328;53.928;18.522;2024-01-11T10:32:44;2.70;99.90
22321;DHT22;11328;53.928;18.522;2024-01-11T10:35:12;2.80;99.90
22321;DHT22;11328;53.928;18.522;2024-01-11T10:37:41;2.70;99.90
22321;DHT22;11328;53.928;18.522;2024-01-11T10:40:10;2.80;99.90
22321;DHT22;11328;53.928;18.522;2024-01-11T10:42:43;2.80;99.90
22321;DHT22;11328;53.928;18.522;2024-01-11T10:45:16;2.80;99.90
22321;DHT22;11328;53.928;18.522;2024-01-11T10:48:00;2.80;99.90
22321;DHT22;11328;53.928;18.522;2024-01-11T10:50:34;2.90;99.90
22321;DHT22;11328;53.928;18.522;2024-01-11T10:56:06;2.90;99.90
22321;DHT22;11328;53.928;18.522;2024-01-11T10:58:36;2.90;99.90
22321;DHT22;11328;53.928;18.522;2024-01-11T11:01:05;2.90;99.90
22321;DHT22;11328;53.928;18.522;2024-01-11T11:03:35;2.80;99.90
22321;DHT22;11328;53.928;18.522;2024-01-11T11:06:04;2.80;99.90
22321;DHT22;11328;53.928;18.522;2024-01-11T11:08:39;2.90;99.90
22321;DHT22;11328;53.928;18.522;2024-01-11T11:11:07;3.00;99.90
22321;DHT22;11328;53.928;18.522;2024-01-11T11:13:35;3.00;99.90
22321;DHT22;11328;53.928;18.522;2024-01-11T11:16:02;3.10;99.90
22321;DHT22;11328;53.928;18.522;2024-01-11T11:18:33;3.00;99.90
22321;DHT22;11328;53.928;18.522;2024-01-11T11:21:09;3.00;99.90
22321;DHT22;11328;53.928;18.522;2024-01-11T11:23:39;2.90;99.90
22321;DHT22;11328;53.928;18.522;2024-01-11T11:26:06;2.80;99.90
22321;DHT22;11328;53.928;18.522;2024-01-11T11:28:41;2.80;99.90
22321;DHT22;11328;53.928;18.522;2024-01-11T11:31:08;2.70;99.90
22321;DHT22;11328;53.928;18.522;2024-01-11T11:33:38;2.80;99.90
22321;DHT22;11328;53.928;18.522;2024-01-11T11:36:05;3.00;99.90
22321;DHT22;11328;53.928;18.522;2024-01-11T11:38:38;3.00;99.90
22321;DHT22;11328;53.928;18.522;2024-01-11T11:41:07;2.90;99.90
22321;DHT22;11328;53.928;18.522;2024-01-11T11:43:34;3.00;99.90
22321;DHT22;11328;53.928;18.522;2024-01-11T11:46:03;3.10;99.90
22321;DHT22;11328;53.928;18.522;2024-01-11T11:51:09;3.10;99.90
22321;DHT22;11328;53.928;18.522;2024-01-11T11:53:38;3.10;99.90
22321;DHT22;11328;53.928;18.522;2024-01-11T11:56:08;3.10;99.90
22321;DHT22;11328;53.928;18.522;2024-01-11T11:58:39;3.20;99.90
22321;DHT22;11328;53.928;18.522;2024-01-11T12:01:06;3.20;99.90
22321;DHT22;11328;53.928;18.522;2024-01-11T12:03:35;3.20;99.90
22321;DHT22;11328;53.928;18.522;2024-01-11T12:06:09;3.30;99.90
22321;DHT22;11328;53.928;18.522;2024-01-11T12:08:44;3.20;99.90
22321;DHT22;11328;53.928;18.522;2024-01-11T12:11:14;3.20;99.90
22321;DHT22;11328;53.928;18.522;2024-01-11T12:13:42;3.30;99.90
22321;DHT22;11328;53.928;18.522;2024-01-11T12:16:11;3.20;99.90
22321;DHT22;11328;53.928;18.522;2024-01-11T12:18:39;3.30;99.90
22321;DHT22;11328;53.928;18.522;2024-01-11T12:21:08;3.30;99.90
22321;DHT22;11328;53.928;18.522;2024-01-11T12:23:38;3.30;99.90
22321;DHT22;11328;53.928;18.522;2024-01-11T12:26:07;3.30;99.90
22321;DHT22;11328;53.928;18.522;2024-01-11T12:28:40;3.40;99.90
22321;DHT22;11328;53.928;18.522;2024-01-11T12:31:09;3.30;99.90
22321;DHT22;11328;53.928;18.522;2024-01-11T12:33:36;3.40;99.90
22321;DHT22;11328;53.928;18.522;2024-01-11T12:36:07;3.30;99.90
22321;DHT22;11328;53.928;18.522;2024-01-11T12:38:35;3.30;99.90
22321;DHT22;11328;53.928;18.522;2024-01-11T12:41:03;3.40;99.90
22321;DHT22;11328;53.928;18.522;2024-01-11T12:43:33;3.40;99.90
22321;DHT22;11328;53.928;18.522;2024-01-11T12:46:01;3.40;99.90
22321;DHT22;11328;53.928;18.522;2024-01-11T12:48:29;3.40;99.90
22321;DHT22;11328;53.928;18.522;2024-01-11T12:50:57;3.50;99.90
22321;DHT22;11328;53.928;18.522;2024-01-11T12:53:40;3.40;99.90
22321;DHT22;11328;53.928;18.522;2024-01-11T12:56:08;3.30;99.90
22321;DHT22;11328;53.928;18.522;2024-01-11T12:58:38;3.30;99.90
22321;DHT22;11328;53.928;18.522;2024-01-11T13:01:09;3.40;99.90
22321;DHT22;11328;53.928;18.522;2024-01-11T13:03:38;3.30;99.90
22321;DHT22;11328;53.928;18.522;2024-01-11T13:06:10;3.30;99.90
22321;DHT22;11328;53.928;18.522;2024-01-11T13:08:38;3.20;99.90
22321;DHT22;11328;53.928;18.522;2024-01-11T13:11:09;3.20;99.90
22321;DHT22;11328;53.928;18.522;2024-01-11T13:13:37;3.20;99.90
22321;DHT22;11328;53.928;18.522;2024-01-11T13:16:05;3.20;99.90
22321;DHT22;11328;53.928;18.522;2024-01-11T13:18:41;3.20;99.90
22321;DHT22;11328;53.928;18.522;2024-01-11T13:21:08;3.20;99.90
22321;DHT22;11328;53.928;18.522;2024-01-11T13:23:36;3.20;99.90
22321;DHT22;11328;53.928;18.522;2024-01-11T13:26:05;3.30;99.90
22321;DHT22;11328;53.928;18.522;2024-01-11T13:28:33;3.30;99.90
22321;DHT22;11328;53.928;18.522;2024-01-11T13:31:00;3.30;99.90
22321;DHT22;11328;53.928;18.522;2024-01-11T13:33:29;3.30;99.90
22321;DHT22;11328;53.928;18.522;2024-01-11T13:35:56;3.30;99.90
22321;DHT22;11328;53.928;18.522;2024-01-11T13:38:23;3.40;99.90
22321;DHT22;11328;53.928;18.522;2024-01-11T13:40:51;3.30;99.90
22321;DHT22;11328;53.928;18.522;2024-01-11T13:43:19;3.30;99.90
22321;DHT22;11328;53.928;18.522;2024-01-11T13:45:46;3.40;99.90
22321;DHT22;11328;53.928;18.522;2024-01-11T13:48:13;3.40;99.90
22321;DHT22;11328;53.928;18.522;2024-01-11T13:50:40;3.50;99.90
22321;DHT22;11328;53.928;18.522;2024-01-11T13:53:07;3.50;99.90
22321;DHT22;11328;53.928;18.522;2024-01-11T13:55:35;3.40;99.90
22321;DHT22;11328;53.928;18.522;2024-01-11T13:58:06;3.40;99.90
22321;DHT22;11328;53.928;18.522;2024-01-11T14:00:33;3.50;99.90
22321;DHT22;11328;53.928;18.522;2024-01-11T14:03:00;3.50;99.90
22321;DHT22;11328;53.928;18.522;2024-01-11T14:05:28;3.50;99.90
22321;DHT22;11328;53.928;18.522;2024-01-11T14:07:56;3.60;99.90
22321;DHT22;11328;53.928;18.522;2024-01-11T14:10:26;3.50;99.90
22321;DHT22;11328;53.928;18.522;2024-01-11T14:12:54;3.60;99.90
22321;DHT22;11328;53.928;18.522;2024-01-11T14:15:22;3.70;99.90
22321;DHT22;11328;53.928;18.522;2024-01-11T14:17:49;3.50;99.90
22321;DHT22;11328;53.928;18.522;2024-01-11T14:20:17;3.40;99.90
22321;DHT22;11328;53.928;18.522;2024-01-11T14:22:46;3.40;99.90
22321;DHT22;11328;53.928;18.522;2024-01-11T14:25:17;3.30;99.90
22321;DHT22;11328;53.928;18.522;2024-01-11T14:27:48;3.40;99.90
22321;DHT22;11328;53.928;18.522;2024-01-11T14:30:16;3.30;99.90
22321;DHT22;11328;53.928;18.522;2024-01-11T14:32:43;3.30;99.90
22321;DHT22;11328;53.928;18.522;2024-01-11T14:35:12;3.30;99.90
22321;DHT22;11328;53.928;18.522;2024-01-11T14:37:39;3.40;99.90
22321;DHT22;11328;53.928;18.522;2024-01-11T14:40:08;3.30;99.90
22321;DHT22;11328;53.928;18.522;2024-01-11T14:42:39;3.30;99.90
22321;DHT22;11328;53.928;18.522;2024-01-11T14:45:07;3.30;99.90
22321;DHT22;11328;53.928;18.522;2024-01-11T14:47:34;3.20;99.90
22321;DHT22;11328;53.928;18.522;2024-01-11T14:50:03;3.30;99.90
22321;DHT22;11328;53.928;18.522;2024-01-11T14:52:31;3.20;99.90
22321;DHT22;11328;53.928;18.522;2024-01-11T14:54:58;3.20;99.90
22321;DHT22;11328;53.928;18.522;2024-01-11T14:57:26;3.30;99.90
22321;DHT22;11328;53.928;18.522;2024-01-11T14:59:53;3.30;99.90
22321;DHT22;11328;53.928;18.522;2024-01-11T15:02:20;3.30;99.90
22321;DHT22;11328;53.928;18.522;2024-01-11T15:04:48;3.30;99.90
22321;DHT22;11328;53.928;18.522;2024-01-11T15:07:16;3.30;99.90
22321;DHT22;11328;53.928;18.522;2024-01-11T15:09:42;3.40;99.90
22321;DHT22;11328;53.928;18.522;2024-01-11T15:12:09;3.40;99.90
22321;DHT22;11328;53.928;18.522;2024-01-11T15:14:36;3.50;99.90
22321;DHT22;11328;53.928;18.522;2024-01-11T15:17:04;3.40;99.90
22321;DHT22;11328;53.928;18.522;2024-01-11T15:19:31;3.40;99.90
22321;DHT22;11328;53.928;18.522;2024-01-11T15:21:58;3.40;99.90
22321;DHT22;11328;53.928;18.522;2024-01-11T15:24:26;3.40;99.90
22321;DHT22;11328;53.928;18.522;2024-01-11T15:26:55;3.40;99.90
22321;DHT22;11328;53.928;18.522;2024-01-11T15:29:22;3.40;99.90
22321;DHT22;11328;53.928;18.522;2024-01-11T15:31:49;3.50;99.90
22321;DHT22;11328;53.928;18.522;2024-01-11T15:34:17;3.50;99.90
22321;DHT22;11328;53.928;18.522;2024-01-11T15:36:45;3.70;99.90
22321;DHT22;11328;53.928;18.522;2024-01-11T15:39:12;3.80;99.90
22321;DHT22;11328;53.928;18.522;2024-01-11T15:41:54;3.80;99.90
22321;DHT22;11328;53.928;18.522;2024-01-11T15:44:24;3.90;99.90
22321;DHT22;11328;53.928;18.522;2024-01-11T15:46:54;4.00;99.90
22321;DHT22;11328;53.928;18.522;2024-01-11T15:49:21;4.20;99.90